createdAt,value
2022-08-03T00:00:02.121Z,21.1
2022-08-03T00:01:02.293Z,21.1
2022-08-03T00:02:02.312Z,21.1
2022-08-03T00:03:01.798Z,21.2
2022-08-03T00:04:01.855Z,21.2
2022-08-03T00:05:01.721Z,21.1
2022-08-03T00:06:03.623Z,20.9
2022-08-03T00:07:01.885Z,20.8
2022-08-03T00:08:01.805Z,20.6
2022-08-03T00:09:01.874Z,20.6
2022-08-03T00:10:01.675Z,20.4
2022-08-03T00:11:01.657Z,20.2
2022-08-03T00:12:01.448Z,20.1
2022-08-03T00:13:02.403Z,20.1
2022-08-03T00:14:02.261Z,20
2022-08-03T00:15:02.274Z,20
2022-08-03T00:16:01.392Z,20.1
2022-08-03T00:17:02.434Z,20.1
2022-08-03T00:18:02.296Z,20.1
2022-08-03T00:19:02.355Z,20.1
2022-08-03T00:20:02.163Z,20
2022-08-03T00:21:02.139Z,20.1
2022-08-03T00:22:01.980Z,20.4
2022-08-03T00:23:01.926Z,20.6
2022-08-03T00:24:01.881Z,20.9
2022-08-03T00:25:01.699Z,21.1
2022-08-03T00:26:01.696Z,21.4
2022-08-03T00:27:01.531Z,21.2
2022-08-03T00:28:01.497Z,21.1
2022-08-03T00:29:02.429Z,21.3
2022-08-03T00:30:02.292Z,21.4
2022-08-03T00:31:01.462Z,21.4
2022-08-03T00:32:02.445Z,21.7
2022-08-03T00:33:01.462Z,21.3
2022-08-03T00:34:03.241Z,21
2022-08-03T00:35:03.125Z,21.2
2022-08-03T00:36:01.817Z,21.3
2022-08-03T00:37:01.807Z,21.3
2022-08-03T00:38:01.634Z,21.2
2022-08-03T00:39:01.609Z,21.3
2022-08-03T00:40:01.466Z,21.3
2022-08-03T00:41:02.267Z,21.3
2022-08-03T00:42:02.273Z,21.4
2022-08-03T00:43:02.081Z,21.2
2022-08-03T00:44:02.069Z,21.3
2022-08-03T00:45:01.906Z,21.3
2022-08-03T00:46:02.052Z,21.3
2022-08-03T00:47:02.027Z,21.3
2022-08-03T00:48:01.854Z,21.2
2022-08-03T00:49:01.838Z,21.2
2022-08-03T00:50:01.961Z,21.2
2022-08-03T00:51:01.836Z,21.2
2022-08-03T00:52:01.761Z,20.9
2022-08-03T00:53:01.573Z,21
2022-08-03T00:54:01.550Z,20.7
2022-08-03T00:55:01.389Z,20.9
2022-08-03T00:56:02.344Z,21
2022-08-03T00:57:02.174Z,21
2022-08-03T00:58:02.155Z,21.1
2022-08-03T00:59:01.965Z,21.3
2022-08-03T01:00:01.910Z,21.3
2022-08-03T01:01:02.253Z,21.3
2022-08-03T01:02:02.449Z,21.3
2022-08-03T01:03:02.288Z,21.2
2022-08-03T01:04:02.254Z,20.8
2022-08-03T01:05:02.068Z,21.1
2022-08-03T01:06:02.040Z,21.2
2022-08-03T01:07:01.875Z,21.3
2022-08-03T01:08:02.261Z,21
2022-08-03T01:09:02.118Z,21.1
2022-08-03T01:10:01.962Z,20.9
2022-08-03T01:11:01.896Z,20.9
2022-08-03T01:12:02.051Z,21.1
2022-08-03T01:13:01.920Z,21.1
2022-08-03T01:14:04.376Z,21.1
2022-08-03T01:15:02.348Z,21.2
2022-08-03T01:16:01.664Z,21
2022-08-03T01:17:01.605Z,21.1
2022-08-03T01:18:01.441Z,21.1
2022-08-03T01:19:02.417Z,21.2
2022-08-03T01:20:02.267Z,21.1
2022-08-03T01:21:02.237Z,21.1
2022-08-03T01:22:01.881Z,21
2022-08-03T01:23:01.847Z,21.1
2022-08-03T01:24:01.665Z,21.2
2022-08-03T01:25:01.589Z,21.1
2022-08-03T01:26:01.420Z,21.1
2022-08-03T01:27:03.284Z,21
2022-08-03T01:28:02.283Z,21
2022-08-03T01:29:02.247Z,21.1
2022-08-03T01:30:02.063Z,21.1
2022-08-03T01:31:01.336Z,21.2
2022-08-03T01:32:52.144Z,21.4
2022-08-03T01:33:03.204Z,21.4
2022-08-03T01:34:01.678Z,21.5
2022-08-03T01:35:02.040Z,21
2022-08-03T01:36:01.979Z,20.8
2022-08-03T01:37:01.810Z,20.8
2022-08-03T01:38:01.724Z,20.9
2022-08-03T01:39:01.654Z,21
2022-08-03T01:40:01.479Z,21.1
2022-08-03T01:41:01.417Z,21.3
2022-08-03T01:42:02.089Z,21.4
2022-08-03T01:43:02.024Z,21.5
2022-08-03T01:44:28.773Z,21.4
2022-08-03T01:45:01.730Z,21.5
2022-08-03T01:46:01.977Z,21.3
2022-08-03T01:47:01.926Z,21.5
2022-08-03T01:48:01.730Z,21.4
2022-08-03T01:49:08.915Z,21.3
2022-08-03T01:50:01.571Z,21.3
2022-08-03T01:51:01.542Z,21.3
2022-08-03T01:52:04.720Z,21.2
2022-08-03T01:53:02.286Z,21.2
2022-08-03T01:54:02.264Z,21.2
2022-08-03T01:55:02.087Z,21.1
2022-08-03T01:56:02.053Z,21.2
2022-08-03T01:57:01.879Z,21.2
2022-08-03T01:58:05.132Z,21.3
2022-08-03T01:59:01.689Z,21.1
2022-08-03T02:00:01.654Z,21.1
2022-08-03T02:01:01.521Z,21
2022-08-03T02:02:15.193Z,21.1
2022-08-03T02:03:01.529Z,20.9
2022-08-03T02:04:01.511Z,20.8
2022-08-03T02:05:02.447Z,20.8
2022-08-03T02:06:55.646Z,20.8
2022-08-03T02:07:03.256Z,20.8
2022-08-03T02:08:01.452Z,20.9
2022-08-03T02:09:02.387Z,21
2022-08-03T02:10:02.210Z,20.6
2022-08-03T02:11:02.214Z,20.8
2022-08-03T02:12:02.023Z,21
2022-08-03T02:13:01.945Z,20.9
2022-08-03T02:14:01.914Z,21
2022-08-03T02:15:01.772Z,21
2022-08-03T02:16:01.977Z,20.9
2022-08-03T02:17:01.941Z,20.9
2022-08-03T02:18:01.764Z,21
2022-08-03T02:19:01.665Z,20.8
2022-08-03T02:20:01.638Z,20.9
2022-08-03T02:21:01.491Z,20.9
2022-08-03T02:22:01.981Z,20.9
2022-08-03T02:23:01.954Z,20.9
2022-08-03T02:24:01.771Z,20.9
2022-08-03T02:25:01.694Z,20.8
2022-08-03T02:26:01.858Z,20.7
2022-08-03T02:27:01.963Z,20.7
2022-08-03T02:28:01.992Z,20.6
2022-08-03T07:56:03.335Z,25.1
2022-08-03T07:58:02.187Z,25.2
2022-08-03T07:59:01.686Z,25.3
2022-08-03T08:00:02.533Z,25
2022-08-03T08:01:01.523Z,24.8
2022-08-03T08:02:01.579Z,25
2022-08-03T08:03:01.376Z,24.9
2022-08-03T08:04:02.245Z,24.9
2022-08-03T08:05:05.430Z,24.8
2022-08-03T08:06:01.820Z,24.9
2022-08-03T08:07:01.641Z,25.2
2022-08-03T08:08:01.461Z,25.4
2022-08-03T08:09:02.341Z,25.4
2022-08-03T08:10:02.295Z,25.5
2022-08-03T08:11:02.209Z,25.6
2022-08-03T08:12:02.132Z,25.4
2022-08-03T08:13:01.998Z,25.5
2022-08-03T08:14:01.842Z,25.2
2022-08-03T08:15:01.699Z,25.3
2022-08-03T08:16:01.690Z,25.5
2022-08-03T08:17:05.610Z,25.6
2022-08-03T08:18:02.180Z,25.5
2022-08-03T08:19:02.216Z,25.6
2022-08-03T08:20:02.114Z,25.8
2022-08-03T08:21:01.976Z,26.1
2022-08-03T08:22:02.138Z,25.8
2022-08-03T08:23:01.951Z,26.1
2022-08-03T08:24:02.372Z,26.2
2022-08-03T08:25:02.371Z,26.3
2022-08-03T08:26:02.258Z,26.4
2022-08-03T08:27:02.144Z,26.3
2022-08-03T08:28:21.645Z,26.6
2022-08-03T08:29:01.413Z,26.5
2022-08-03T08:30:08.753Z,26.4
2022-08-03T08:31:02.177Z,26.4
2022-08-03T08:32:02.137Z,26.6
2022-08-03T08:33:02.029Z,26.8
2022-08-03T08:34:03.854Z,26.7
2022-08-03T08:35:01.641Z,26.7
2022-08-03T08:36:01.537Z,26.8
2022-08-03T08:37:01.396Z,26.8
2022-08-03T08:38:04.135Z,26.9
2022-08-03T08:39:01.719Z,26.9
2022-08-03T08:40:01.553Z,26.9
2022-08-03T08:41:01.405Z,26.9
2022-08-03T08:42:02.278Z,26.7
2022-08-03T08:43:02.139Z,26.9
2022-08-03T08:44:02.053Z,27
2022-08-03T08:45:01.895Z,27
2022-08-03T08:46:01.749Z,27.1
2022-08-03T08:47:01.564Z,27.1
2022-08-03T08:48:04.448Z,27.3
2022-08-03T08:49:04.593Z,27.2
2022-08-03T08:50:10.002Z,27.5
2022-08-03T08:51:01.810Z,27.5
2022-08-03T08:52:01.803Z,27.6
2022-08-03T08:53:01.681Z,27.7
2022-08-03T08:54:01.576Z,27.4
2022-08-03T08:55:01.386Z,27.5
2022-08-03T08:56:02.264Z,27.7
2022-08-03T08:57:02.166Z,27.9
2022-08-03T08:58:02.060Z,27.9
2022-08-03T08:59:01.914Z,27.9
2022-08-03T09:00:01.347Z,28.1
2022-08-03T09:01:01.437Z,28
2022-08-03T09:02:01.552Z,27.8
2022-08-03T09:03:02.075Z,27.8
2022-08-03T09:04:01.803Z,27.9
2022-08-03T09:05:05.386Z,28
2022-08-03T09:06:01.414Z,27.9
2022-08-03T09:07:19.043Z,27.9
2022-08-03T09:08:01.702Z,27.8
2022-08-03T09:09:02.279Z,27.9
2022-08-03T09:10:10.711Z,27.6
2022-08-03T09:11:01.615Z,27.6
2022-08-03T09:12:21.016Z,26.8
2022-08-03T09:13:02.215Z,26.5
2022-08-03T09:14:01.407Z,26.5
2022-08-03T09:15:16.260Z,26.5
2022-08-03T09:16:01.680Z,26.5
2022-08-03T09:17:01.582Z,26.6
2022-08-03T09:18:01.421Z,26.5
2022-08-03T09:19:02.326Z,26.5
2022-08-03T09:20:03.335Z,26.5
2022-08-03T09:21:14.866Z,26.3
2022-08-03T09:22:01.922Z,26.2
2022-08-03T09:23:01.771Z,26
2022-08-03T09:24:03.599Z,25.8
2022-08-03T09:25:23.122Z,25.8
2022-08-03T09:26:01.861Z,25.9
2022-08-03T09:27:01.727Z,25.8
2022-08-03T09:28:01.587Z,25.9
2022-08-03T09:29:05.907Z,25.5
2022-08-03T09:30:01.647Z,25.6
2022-08-03T09:31:01.682Z,25.6
2022-08-03T09:32:01.572Z,25.5
2022-08-03T09:33:01.405Z,25.4
2022-08-03T09:34:02.287Z,25.5
2022-08-03T09:35:02.259Z,25.7
2022-08-03T09:36:02.203Z,25.8
2022-08-03T09:37:02.078Z,25.9
2022-08-03T09:38:08.604Z,26.3
2022-08-03T09:39:02.152Z,26.7
2022-08-03T09:40:02.027Z,26.8
2022-08-03T09:41:01.917Z,27
2022-08-03T09:42:01.759Z,27.3
2022-08-03T09:43:01.629Z,27.2
2022-08-03T09:44:02.110Z,27.1
2022-08-03T09:45:01.945Z,27.3
2022-08-03T09:46:01.858Z,27.4
2022-08-03T09:47:01.707Z,27.4
2022-08-03T09:48:01.523Z,27.7
2022-08-03T09:49:01.410Z,27.4
2022-08-03T09:50:01.330Z,27.7
2022-08-03T09:51:12.639Z,28
2022-08-03T09:52:30.188Z,28.2
2022-08-03T09:53:01.348Z,28.3
2022-08-03T09:54:02.222Z,28.6
2022-08-03T09:55:02.117Z,28.2
2022-08-03T09:56:33.118Z,28.2
2022-08-03T09:57:01.901Z,28.1
2022-08-03T09:58:01.750Z,28.1
2022-08-03T09:59:01.588Z,27.9
2022-08-03T10:00:06.268Z,28.2
2022-08-03T10:01:02.411Z,28.4
2022-08-03T10:02:01.575Z,28.5
2022-08-03T10:03:01.493Z,28.2
2022-08-03T10:04:02.849Z,28.5
2022-08-03T10:05:02.074Z,28.4
2022-08-03T10:06:01.915Z,28.2
2022-08-03T10:07:01.773Z,28.4
2022-08-03T10:08:01.618Z,28.7
2022-08-03T10:09:01.496Z,28.8
2022-08-03T10:10:29.162Z,29.1
2022-08-03T10:11:02.067Z,28.8
2022-08-03T10:12:01.928Z,28.7
2022-08-03T10:13:01.799Z,28.6
2022-08-03T10:14:01.736Z,28.5
2022-08-03T10:15:01.602Z,29
2022-08-03T10:16:20.893Z,28.5
2022-08-03T10:17:01.644Z,28.1
2022-08-03T10:18:01.501Z,28.2
2022-08-03T10:19:01.359Z,28.2
2022-08-03T10:20:02.230Z,28.1
2022-08-03T10:21:02.138Z,28.2
2022-08-03T10:22:02.094Z,28.5
2022-08-03T10:23:01.990Z,28.8
2022-08-03T10:24:01.829Z,28.9
2022-08-03T10:25:01.699Z,29.2
2022-08-03T10:26:01.555Z,28.2
2022-08-03T10:27:01.410Z,28.6
2022-08-03T10:28:02.310Z,29.4
2022-08-03T10:29:02.235Z,29.7
2022-08-03T10:30:02.165Z,29.5
2022-08-03T10:31:01.941Z,29.3
2022-08-03T10:32:01.872Z,28.9
2022-08-03T10:33:01.718Z,28.9
2022-08-03T10:34:01.653Z,29.4
2022-08-03T10:35:04.013Z,29.8
2022-08-03T10:36:02.321Z,29.7
2022-08-03T10:37:02.256Z,29
2022-08-03T10:38:02.069Z,28.8
2022-08-03T10:39:02.033Z,28.7
2022-08-03T10:40:01.855Z,28.5
2022-08-03T10:41:01.800Z,28.5
2022-08-03T10:42:02.524Z,28.5
2022-08-03T10:43:01.871Z,28.2
2022-08-03T10:44:01.803Z,28.2
2022-08-03T10:45:01.779Z,28.2
2022-08-03T10:46:01.575Z,28.5
2022-08-03T10:47:01.485Z,28.8
2022-08-03T10:48:02.428Z,28.7
2022-08-03T10:49:02.371Z,28.7
2022-08-03T10:50:01.566Z,29
2022-08-03T10:51:01.413Z,29.5
2022-08-03T10:52:02.586Z,29.5
2022-08-03T10:53:02.119Z,29.4
2022-08-03T10:54:02.146Z,29.2
2022-08-03T10:55:03.167Z,29.4
2022-08-03T10:56:02.165Z,29.4
2022-08-03T10:57:07.898Z,29.7
2022-08-03T10:58:01.567Z,30
2022-08-03T10:59:03.693Z,30.4
2022-08-03T11:00:02.039Z,30.4
2022-08-03T11:01:01.385Z,30.4
2022-08-03T11:02:01.613Z,30.7
2022-08-03T11:03:01.465Z,30.1
2022-08-03T11:04:04.810Z,30.3
2022-08-03T11:05:02.031Z,30.7
2022-08-03T11:06:02.052Z,30.9
2022-08-03T11:07:01.875Z,30.9
2022-08-03T11:08:01.826Z,30.9
2022-08-03T11:09:01.783Z,31
2022-08-03T11:10:01.924Z,31
2022-08-03T11:11:01.838Z,30.9
2022-08-03T11:12:01.792Z,30.8
2022-08-03T11:13:01.617Z,31
2022-08-03T11:14:01.553Z,31.4
2022-08-03T11:15:01.404Z,31.6
2022-08-03T11:16:03.903Z,31.6
2022-08-03T11:17:01.614Z,31.4
2022-08-03T11:18:01.550Z,31.2
2022-08-03T11:19:01.498Z,30.9
2022-08-03T11:20:01.571Z,30.7
2022-08-03T11:21:01.544Z,30.7
2022-08-03T11:22:01.426Z,30.4
2022-08-03T11:23:02.421Z,30.2
2022-08-03T11:24:06.263Z,30.7
2022-08-03T11:25:01.761Z,30.4
2022-08-03T11:26:01.717Z,30.4
2022-08-03T11:27:05.588Z,30.2
2022-08-03T11:28:01.754Z,30.1
2022-08-03T11:29:01.743Z,29.9
2022-08-03T11:30:01.586Z,29.8
2022-08-03T11:31:02.323Z,30
2022-08-03T11:32:02.364Z,30
2022-08-03T11:33:02.176Z,29.9
2022-08-03T11:34:02.146Z,30.3
2022-08-03T11:35:01.961Z,30.6
2022-08-03T11:36:01.897Z,30.9
2022-08-03T11:37:01.864Z,31
2022-08-03T11:38:03.452Z,31.1
2022-08-03T11:39:01.470Z,30.2
2022-08-03T11:40:02.641Z,30.8
2022-08-03T11:41:01.751Z,31
2022-08-03T11:42:01.647Z,31.1
2022-08-03T11:43:01.627Z,31.2
2022-08-03T11:44:01.467Z,31
2022-08-03T11:45:02.393Z,30.8
2022-08-03T11:46:02.315Z,31.1
2022-08-03T11:47:02.318Z,31.4
2022-08-03T11:48:02.153Z,31.5
2022-08-03T11:49:04.331Z,31.6
2022-08-03T11:50:01.791Z,31.8
2022-08-03T11:51:02.130Z,32
2022-08-03T11:52:02.092Z,31.6
2022-08-03T11:53:01.883Z,31.5
2022-08-03T11:54:01.801Z,31.9
2022-08-03T11:55:01.728Z,32.3
2022-08-03T11:56:01.534Z,32.2
2022-08-03T11:57:01.512Z,32.1
2022-08-03T11:58:57.265Z,32.2
2022-08-03T11:59:19.667Z,32.2
2022-08-03T12:00:01.355Z,32.2
2022-08-03T12:01:01.669Z,32.6
2022-08-03T12:02:01.616Z,32.6
2022-08-03T12:03:01.491Z,32.6
2022-08-03T12:04:01.660Z,32
2022-08-03T12:05:01.502Z,32.1
2022-08-03T12:06:01.420Z,31.8
2022-08-03T12:07:01.655Z,32.3
2022-08-03T12:08:02.791Z,32.4
2022-08-03T12:09:01.791Z,32.4
2022-08-03T12:10:01.670Z,32.5
2022-08-03T12:11:01.621Z,32.5
2022-08-03T12:12:01.498Z,31.8
2022-08-03T12:13:02.438Z,32
2022-08-03T12:14:45.926Z,32.1
2022-08-03T12:15:02.071Z,32.4
2022-08-03T12:16:01.965Z,32.8
2022-08-03T12:17:01.817Z,32.6
2022-08-03T12:18:01.726Z,31.9
2022-08-03T12:19:01.729Z,32.1
2022-08-03T12:20:01.553Z,31.3
2022-08-03T12:21:01.588Z,30.6
2022-08-03T12:22:01.423Z,30.8
2022-08-03T12:23:02.378Z,31
2022-08-03T12:24:02.028Z,30.9
2022-08-03T12:25:02.020Z,30.3
2022-08-03T12:26:01.864Z,30.7
2022-08-03T12:27:01.577Z,31.1
2022-08-03T12:28:01.594Z,31.1
2022-08-03T12:29:01.462Z,31.2
2022-08-03T12:30:02.422Z,31.5
2022-08-03T12:31:02.161Z,31.8
2022-08-03T12:32:02.265Z,31.7
2022-08-03T12:33:02.165Z,31.9
2022-08-03T12:34:02.069Z,31.4
2022-08-03T12:35:02.314Z,32
2022-08-03T12:36:02.392Z,32.2
2022-08-03T12:37:02.246Z,32.2
2022-08-03T12:38:01.439Z,32
2022-08-03T12:39:02.409Z,31.9
2022-08-03T12:40:09.317Z,32.2
2022-08-03T12:41:01.784Z,32.3
2022-08-03T12:42:01.730Z,32.3
2022-08-03T12:43:01.556Z,32.7
2022-08-03T12:44:01.484Z,32.7
2022-08-03T12:45:02.396Z,32.7
2022-08-03T12:46:02.125Z,32.7
2022-08-03T12:47:02.215Z,32.5
2022-08-03T12:48:02.035Z,32.8
2022-08-03T12:49:02.048Z,32.8
2022-08-03T12:50:02.237Z,32.8
2022-08-03T12:51:02.155Z,32.9
2022-08-03T12:52:07.006Z,32.8
2022-08-03T12:53:01.583Z,32.8
2022-08-03T12:54:01.491Z,32.7
2022-08-03T12:55:02.419Z,32.7
2022-08-03T12:56:04.907Z,32.7
2022-08-03T12:57:02.000Z,32.4
2022-08-03T12:58:01.989Z,32.2
2022-08-03T12:59:01.811Z,32.1
2022-08-03T13:00:01.730Z,32.3
2022-08-03T13:01:01.564Z,32.4
2022-08-03T13:02:02.222Z,32.4
2022-08-03T13:03:26.427Z,32.6
2022-08-03T13:04:01.832Z,32.6
2022-08-03T13:05:02.259Z,32.4
2022-08-03T13:06:02.069Z,32.7
2022-08-03T13:07:02.835Z,32.7
2022-08-03T13:08:02.397Z,32.9
2022-08-03T13:09:02.229Z,32.8
2022-08-03T13:10:06.298Z,32.8
2022-08-03T13:11:02.144Z,33
2022-08-03T13:12:02.647Z,32.9
2022-08-03T13:13:01.628Z,32.6
2022-08-03T13:14:01.600Z,32.6
2022-08-03T13:15:01.434Z,33.2
2022-08-03T13:16:02.094Z,33.4
2022-08-03T13:17:02.049Z,33.5
2022-08-03T13:18:01.875Z,33.1
2022-08-03T13:19:01.781Z,33
2022-08-03T13:20:02.414Z,32.9
2022-08-03T13:21:02.396Z,32.5
2022-08-03T13:22:04.494Z,32.1
2022-08-03T13:23:01.744Z,32.1
2022-08-03T13:24:01.702Z,32.5
2022-08-03T13:25:01.554Z,32.3
2022-08-03T13:26:01.522Z,32.1
2022-08-03T13:27:21.973Z,32.3
2022-08-03T13:28:05.832Z,32.6
2022-08-03T13:29:01.338Z,32.7
2022-08-03T13:30:02.328Z,32.5
2022-08-03T13:31:02.112Z,32.5
2022-08-03T13:32:01.859Z,32.1
2022-08-03T13:33:01.631Z,31.8
2022-08-03T13:34:01.585Z,31.7
2022-08-03T13:35:01.409Z,31.6
2022-08-03T13:36:02.414Z,31.6
2022-08-03T13:37:09.532Z,31.4
2022-08-03T13:38:02.090Z,31.4
2022-08-03T13:39:02.203Z,31.2
2022-08-03T13:40:03.807Z,31.2
2022-08-03T13:41:01.596Z,31.2
2022-08-03T13:42:02.281Z,30.8
2022-08-03T13:43:02.260Z,30.9
2022-08-03T13:44:26.386Z,30.7
2022-08-03T13:45:01.724Z,30.6
2022-08-03T13:46:02.038Z,30.6
2022-08-03T13:47:01.856Z,30.7
2022-08-03T13:48:01.767Z,30.6
2022-08-03T13:49:01.735Z,30.5
2022-08-03T13:50:02.994Z,30.1
2022-08-03T13:51:05.395Z,30.2
2022-08-03T13:52:01.639Z,30.3
2022-08-03T13:53:01.612Z,30.3
2022-08-03T13:54:01.443Z,30.3
2022-08-03T13:55:02.519Z,30.2
2022-08-03T13:56:01.365Z,30.4
2022-08-03T13:58:01.805Z,30.6
2022-08-03T13:58:07.207Z,30.9
2022-08-03T13:59:01.761Z,31.1
2022-08-03T14:00:01.767Z,31.2
2022-08-03T14:01:01.872Z,31
2022-08-03T14:02:01.836Z,31.4
2022-08-03T14:03:13.611Z,31.6
2022-08-03T14:04:01.848Z,31.4
2022-08-03T14:05:01.742Z,31.5
2022-08-03T14:06:01.703Z,31.9
2022-08-03T14:07:01.543Z,32.1
2022-08-03T14:08:03.096Z,32
2022-08-03T14:09:01.382Z,32.1
2022-08-03T14:10:02.449Z,32.3
2022-08-03T14:11:01.533Z,32.4
2022-08-03T14:12:05.313Z,32.5
2022-08-03T14:13:01.767Z,32.6
2022-08-03T14:14:01.678Z,32.6
2022-08-03T14:15:01.921Z,32.5
2022-08-03T14:16:01.619Z,32.6
2022-08-03T14:17:01.759Z,32.5
2022-08-03T14:18:01.697Z,32.5
2022-08-03T14:19:02.157Z,32.5
2022-08-03T14:20:02.421Z,32.5
2022-08-03T14:21:05.417Z,32.5
2022-08-03T14:22:06.301Z,32.5
2022-08-03T14:23:01.709Z,32.4
2022-08-03T14:24:01.639Z,32.4
2022-08-03T14:25:01.466Z,32.2
2022-08-03T14:26:02.054Z,32.6
2022-08-03T14:27:07.272Z,32.9
2022-08-03T14:28:02.081Z,32.9
2022-08-03T14:29:02.007Z,32.8
2022-08-03T14:30:01.964Z,32.9
2022-08-03T14:31:01.973Z,32.8
2022-08-03T14:32:10.650Z,33.2
2022-08-03T14:33:02.298Z,33
2022-08-03T14:34:02.292Z,32.6
2022-08-03T14:35:02.127Z,32.8
2022-08-03T14:36:02.114Z,33.1
2022-08-03T14:37:01.542Z,33.2
2022-08-03T14:38:01.436Z,32.8
2022-08-03T14:39:02.453Z,32.8
2022-08-03T14:40:01.654Z,32.6
2022-08-03T14:41:01.899Z,33
2022-08-03T14:42:01.694Z,32.6
2022-08-03T14:43:01.666Z,32.4
2022-08-03T14:44:02.430Z,32.6
2022-08-03T14:45:04.755Z,32.6
2022-08-03T14:46:01.485Z,32.9
2022-08-03T14:47:01.460Z,33
2022-08-03T14:50:10.771Z,32.7
2022-08-03T14:50:12.612Z,32.8
2022-08-03T14:50:35.347Z,32.6
2022-08-03T14:51:01.609Z,32.7
2022-08-03T14:52:01.578Z,32.5
2022-08-03T14:53:05.134Z,32.8
2022-08-03T14:54:02.049Z,32.7
2022-08-03T14:55:02.041Z,32.7
2022-08-03T14:56:04.176Z,32.6
2022-08-03T14:57:01.496Z,31.9
2022-08-03T14:58:01.454Z,32
2022-08-03T14:59:02.409Z,32.1
2022-08-03T15:00:02.267Z,32
2022-08-03T15:01:02.232Z,32
2022-08-03T15:02:06.605Z,31.9
2022-08-03T15:03:02.096Z,31.9
2022-08-03T15:04:02.346Z,31.3
2022-08-03T15:05:02.356Z,31.5
2022-08-03T15:06:02.177Z,31.4
2022-08-03T15:07:02.180Z,31.4
2022-08-03T15:08:04.166Z,31.5
2022-08-03T15:09:22.767Z,31.5
2022-08-03T15:10:02.334Z,31.4
2022-08-03T15:11:02.455Z,31.6
2022-08-03T15:12:01.653Z,31.9
2022-08-03T15:13:01.623Z,32
2022-08-03T15:14:03.216Z,31.9
2022-08-03T15:15:02.209Z,32
2022-08-03T15:16:02.243Z,32
2022-08-03T15:17:02.250Z,31.7
2022-08-03T15:18:02.056Z,31.9
2022-08-03T15:19:02.033Z,32.1
2022-08-03T15:20:24.297Z,32.1
2022-08-03T15:21:02.198Z,32.1
2022-08-03T15:22:02.213Z,32
2022-08-03T15:23:02.077Z,31.9
2022-08-03T15:24:01.997Z,32.1
2022-08-03T15:25:01.815Z,32.1
2022-08-03T15:26:30.162Z,32.1
2022-08-03T15:27:02.032Z,31.9
2022-08-03T15:28:02.646Z,32.1
2022-08-03T15:29:01.397Z,31.8
2022-08-03T15:30:06.329Z,31.7
2022-08-03T15:31:01.982Z,31.8
2022-08-03T15:32:03.989Z,31.9
2022-08-03T15:33:02.371Z,32.1
2022-08-03T15:34:02.224Z,32.2
2022-08-03T15:35:02.198Z,32.4
2022-08-03T15:36:02.031Z,32.1
2022-08-03T15:37:01.951Z,32.1
2022-08-03T15:38:03.999Z,32.2
2022-08-03T15:39:02.458Z,32.3
2022-08-03T15:40:01.521Z,32.3
2022-08-03T15:41:01.632Z,32.1
2022-08-03T15:42:01.447Z,32.3
2022-08-03T15:43:02.456Z,32.3
2022-08-03T15:44:05.174Z,32.1
2022-08-03T15:45:02.078Z,32
2022-08-03T15:46:28.036Z,32.1
2022-08-03T15:47:01.868Z,31.9
2022-08-03T15:48:01.854Z,32
2022-08-03T15:49:01.664Z,32.2
2022-08-03T15:50:03.464Z,32
2022-08-03T15:51:01.404Z,32.1
2022-08-03T15:52:02.384Z,32.2
2022-08-03T15:53:02.188Z,32.1
2022-08-03T15:54:02.181Z,32.2
2022-08-03T15:55:02.126Z,32.2
2022-08-03T15:56:04.172Z,32
2022-08-03T15:57:01.512Z,32
2022-08-03T15:58:59.205Z,32.3
2022-08-03T15:59:04.032Z,32.3
2022-08-03T16:00:01.804Z,32.1
2022-08-03T16:01:01.536Z,32.1
2022-08-03T16:02:01.613Z,32.3
2022-08-03T16:03:01.689Z,31.9
2022-08-03T16:04:01.643Z,31.8
2022-08-03T16:05:01.479Z,32
2022-08-03T16:06:01.446Z,31.8
2022-08-03T16:07:02.324Z,31.9
2022-08-03T16:08:04.141Z,31.7
2022-08-03T16:09:01.577Z,32
2022-08-03T16:10:01.565Z,31.9
2022-08-03T16:11:01.404Z,31.8
2022-08-03T16:12:02.358Z,31.6
2022-08-03T16:13:02.161Z,31.6
2022-08-03T16:14:05.139Z,31.5
2022-08-03T16:15:02.363Z,31.3
2022-08-03T16:16:02.028Z,31.3
2022-08-03T16:17:01.931Z,31.3
2022-08-03T16:18:01.732Z,31.3
2022-08-03T16:19:05.539Z,31.4
2022-08-03T16:20:03.336Z,31.2
2022-08-03T16:21:01.668Z,31
2022-08-03T16:22:01.642Z,31
2022-08-03T16:23:07.041Z,31.1
2022-08-03T16:24:02.026Z,31.2
2022-08-03T16:25:02.064Z,31
2022-08-03T16:26:04.200Z,31.1
2022-08-03T16:27:01.789Z,31
2022-08-03T16:28:07.485Z,31
2022-08-03T16:29:02.166Z,31
2022-08-03T16:30:01.679Z,30.9
2022-08-03T16:31:01.611Z,30.9
2022-08-03T16:32:03.288Z,30.9
2022-08-03T16:33:02.134Z,30.7
2022-08-03T16:34:02.004Z,30.8
2022-08-03T16:35:02.146Z,30.7
2022-08-03T16:36:02.061Z,30.7
2022-08-03T16:37:11.852Z,30.8
2022-08-03T16:38:04.439Z,30.7
2022-08-03T16:39:01.762Z,30.6
2022-08-03T16:40:01.856Z,30.5
2022-08-03T16:41:01.794Z,30.5
2022-08-03T16:42:01.927Z,30.5
2022-08-03T16:43:01.722Z,30.5
2022-08-03T16:44:03.477Z,30.4
2022-08-03T16:45:01.641Z,30.4
2022-08-03T16:46:01.734Z,30.5
2022-08-03T16:47:01.732Z,30.3
2022-08-03T16:48:05.783Z,30.4
2022-08-03T16:49:01.845Z,30.3
2022-08-03T16:50:03.744Z,30.3
2022-08-03T16:51:02.082Z,30.4
2022-08-03T16:52:02.008Z,30.4
2022-08-03T16:53:02.286Z,30.5
2022-08-03T16:54:05.702Z,30.4
2022-08-03T16:55:01.526Z,30.4
2022-08-03T16:56:01.872Z,30.3
2022-08-03T16:57:02.415Z,30.5
2022-08-03T16:58:01.658Z,30.4
2022-08-03T16:59:02.287Z,30.4
2022-08-03T17:00:01.637Z,30.2
2022-08-03T17:01:01.390Z,30.3
2022-08-03T17:02:02.826Z,30.2
2022-08-03T17:03:04.001Z,30
2022-08-03T17:04:04.822Z,30
2022-08-03T17:05:02.044Z,30
2022-08-03T17:06:02.154Z,29.9
2022-08-03T17:07:01.956Z,29.8
2022-08-03T17:08:03.487Z,29.8
2022-08-03T17:09:01.629Z,29.7
2022-08-03T17:10:01.827Z,29.6
2022-08-03T17:11:01.780Z,29.6
2022-08-03T17:12:01.703Z,29.6
2022-08-03T17:13:01.765Z,29.6
2022-08-03T17:14:02.212Z,29.6
2022-08-03T17:15:01.488Z,29.5
2022-08-03T17:16:01.993Z,29.5
2022-08-03T17:17:02.176Z,29.5
2022-08-03T17:18:01.757Z,29.6
2022-08-03T17:19:01.937Z,29.6
2022-08-03T17:20:01.382Z,29.5
2022-08-03T17:21:02.107Z,29.4
2022-08-03T17:22:04.095Z,29.4
2022-08-03T17:23:01.655Z,29.2
2022-08-03T17:24:02.186Z,29.3
2022-08-03T17:25:02.176Z,29.3
2022-08-03T17:26:04.032Z,29.3
2022-08-03T17:27:01.621Z,29.3
2022-08-03T17:28:42.981Z,29.3
2022-08-03T17:29:01.953Z,29.3
2022-08-03T17:30:01.721Z,29.2
2022-08-03T17:31:01.972Z,29.3
2022-08-03T17:32:04.512Z,29.2
2022-08-03T17:33:01.526Z,29.1
2022-08-03T17:34:01.632Z,29
2022-08-03T17:35:01.492Z,29.1
2022-08-03T17:36:01.723Z,29
2022-08-03T17:37:04.340Z,29
2022-08-03T17:38:03.543Z,29.1
2022-08-03T17:39:01.587Z,29
2022-08-03T17:40:03.717Z,29
2022-08-03T17:41:08.099Z,28.9
2022-08-03T17:42:02.174Z,28.8
2022-08-03T17:43:02.138Z,28.8
2022-08-03T17:44:14.837Z,28.8
2022-08-03T17:45:03.449Z,28.6
2022-08-03T17:46:01.384Z,28.7
2022-08-03T17:47:01.801Z,28.6
2022-08-03T17:48:01.902Z,28.7
2022-08-03T17:49:02.308Z,28.7
2022-08-03T17:50:04.538Z,28.6
2022-08-03T17:51:02.286Z,28.6
2022-08-03T17:52:02.936Z,28.6
2022-08-03T17:53:06.970Z,28.6
2022-08-03T17:54:02.087Z,28.5
2022-08-03T17:55:51.209Z,28.6
2022-08-03T17:56:04.303Z,28.6
2022-08-03T17:57:22.270Z,28.5
2022-08-03T17:58:03.254Z,28.5
2022-08-03T17:59:02.309Z,28.4
2022-08-03T18:00:01.357Z,28.2
2022-08-03T18:01:01.654Z,28.3
2022-08-03T18:02:06.320Z,28.3
2022-08-03T18:03:02.024Z,28.5
2022-08-03T18:04:02.357Z,28.3
2022-08-03T18:05:01.765Z,28.2
2022-08-03T18:06:08.939Z,28.2
2022-08-03T18:07:11.032Z,28.2
2022-08-03T18:08:01.559Z,28.3
2022-08-03T18:09:05.025Z,28.2
2022-08-03T18:10:02.884Z,28.2
2022-08-03T18:11:03.242Z,28.1
2022-08-03T18:12:01.660Z,28
2022-08-03T18:13:01.542Z,28.1
2022-08-03T18:14:04.870Z,28
2022-08-03T18:15:07.907Z,28
2022-08-03T18:16:01.572Z,27.9
2022-08-03T18:17:01.857Z,28
2022-08-03T18:18:02.590Z,27.9
2022-08-03T18:19:01.597Z,27.9
2022-08-03T18:20:10.774Z,27.7
2022-08-03T18:21:02.191Z,27.7
2022-08-03T18:22:04.297Z,27.6
2022-08-03T18:23:04.624Z,27.7
2022-08-03T18:24:01.539Z,27.7
2022-08-03T18:25:01.361Z,27.5
2022-08-03T18:26:01.575Z,27.4
2022-08-03T18:27:02.356Z,27.3
2022-08-03T18:28:02.054Z,27.3
2022-08-03T18:29:01.940Z,27.4
2022-08-03T18:30:02.341Z,27.4
2022-08-03T18:31:04.359Z,27.5
2022-08-03T18:32:03.652Z,27.4
2022-08-03T18:34:15.809Z,27.4
2022-08-03T18:35:01.994Z,27.5
2022-08-03T18:36:01.365Z,27.5
2022-08-03T18:37:04.256Z,27.5
2022-08-03T18:38:01.852Z,27.4
2022-08-03T18:39:02.828Z,27.5
2022-08-03T18:40:01.590Z,27.5
2022-08-03T18:41:01.600Z,27.4
2022-08-03T18:42:01.411Z,27.4
2022-08-03T18:43:07.926Z,27.4
2022-08-03T18:44:07.427Z,27.3
2022-08-03T18:45:14.836Z,27.4
2022-08-03T18:46:01.834Z,27.1
2022-08-03T18:47:04.948Z,26.9
2022-08-03T18:48:01.422Z,26.7
2022-08-03T18:49:08.153Z,26.7
2022-08-03T18:50:02.083Z,26.8
2022-08-03T18:51:01.922Z,26.9
2022-08-03T18:52:02.159Z,26.9
2022-08-03T18:53:02.201Z,26.8